Time;durP1;ratioP1;P1;durP2;ratioP2;P2;SDS_P1;SDS_P2;PMS_P1;PMS_P2;Temp;Humidity;BMP_temperature;BMP_pressure;BME280_temperature;BME280_humidity;BME280_pressure;Samples;Min_cycle;Max_cycle;Signal;HPM_P1;HPM_P2
2023/08/15 00:00:04;;;;;;;1.90;1.80;;;22.90;99.90;;;23.31;71.49;101138.34;5063844;28;20040;-70
2023/08/15 00:02:41;;;;;;;2.10;2.00;;;22.90;99.90;;;23.33;71.92;101135.56;5062500;28;20053;-71
2023/08/15 00:05:10;;;;;;;2.25;2.15;;;22.90;99.90;;;23.33;72.03;101135.56;5061962;28;20047;-71
2023/08/15 00:07:57;;;;;;;2.30;2.20;;;22.90;99.90;;;23.33;72.21;101122.06;5062023;28;20402;-71
2023/08/15 00:10:25;;;;;;;2.40;2.30;;;22.90;99.90;;;23.34;72.79;101119.28;5062059;28;20076;-70
2023/08/15 00:12:53;;;;;;;2.25;2.15;;;22.90;99.90;;;23.36;73.02;101112.00;5062612;28;20094;-71
2023/08/15 00:15:22;;;;;;;2.30;2.20;;;22.90;99.90;;;23.39;73.37;101117.22;5061258;28;20509;-71
2023/08/15 00:17:51;;;;;;;2.03;1.92;;;23.00;99.90;;;23.37;73.60;101102.91;5063588;28;20079;-70
2023/08/15 00:20:20;;;;;;;2.00;1.90;;;23.00;99.90;;;23.39;74.02;101114.50;5067314;28;20406;-71
2023/08/15 00:22:49;;;;;;;2.25;2.15;;;23.00;99.90;;;23.37;74.48;101113.72;5060179;28;20033;-71
2023/08/15 00:25:17;;;;;;;2.22;2.13;;;23.00;99.90;;;23.34;74.71;101116.59;5063858;28;20056;-70
2023/08/15 00:27:46;;;;;;;2.13;2.03;;;22.90;99.90;;;23.31;75.29;101127.53;5061083;28;20552;-70
2023/08/15 00:30:14;;;;;;;2.55;2.45;;;22.90;99.90;;;23.19;75.34;101111.94;5062879;28;20486;-70
2023/08/15 00:32:43;;;;;;;2.13;2.03;;;22.90;99.90;;;23.32;76.05;101134.69;5061829;28;20084;-70
2023/08/15 00:35:12;;;;;;;2.45;2.35;;;22.90;99.90;;;23.30;76.26;101133.88;5068668;28;20051;-70
2023/08/15 00:37:41;;;;;;;2.63;2.53;;;22.90;99.90;;;23.26;76.82;101135.88;5057997;28;20449;-70
2023/08/15 00:40:11;;;;;;;2.78;2.67;;;22.90;99.90;;;23.23;76.67;101138.72;5063024;28;20036;-70
2023/08/15 00:42:39;;;;;;;1.95;1.85;;;22.80;99.90;;;23.19;76.92;101125.44;5067407;28;20056;-70
2023/08/15 00:45:09;;;;;;;2.13;2.03;;;22.80;99.90;;;23.11;76.97;101127.69;5051661;28;20083;-70
2023/08/15 00:47:38;;;;;;;2.38;2.28;;;22.70;99.90;;;23.13;77.18;101123.94;5060593;28;20246;-70
2023/08/15 00:50:08;;;;;;;2.55;2.45;;;22.70;99.90;;;23.12;77.55;101130.31;5062962;28;20049;-70
2023/08/15 00:52:38;;;;;;;2.72;2.63;;;22.70;99.90;;;22.51;77.66;101039.06;5061681;28;20142;-70
2023/08/15 00:55:09;;;;;;;2.45;2.35;;;22.70;99.90;;;23.05;78.30;101131.56;5068386;28;20402;-70
2023/08/15 00:57:38;;;;;;;2.17;2.08;;;22.60;99.90;;;22.56;78.45;101053.19;5058257;28;20449;-70
2023/08/15 01:00:08;;;;;;;2.20;2.10;;;22.60;99.90;;;23.00;78.93;101141.72;5063135;28;20442;-70
2023/08/15 01:02:36;;;;;;;2.38;2.28;;;22.50;99.90;;;22.97;79.30;101138.31;5060014;28;20038;-70
2023/08/15 01:05:07;;;;;;;2.67;2.58;;;22.60;99.90;;;22.97;79.66;101136.50;5060402;28;20068;-70
2023/08/15 01:07:37;;;;;;;2.38;2.28;;;22.50;99.90;;;22.95;79.89;101132.13;5062714;28;20066;-70
2023/08/15 01:10:08;;;;;;;2.10;2.00;;;22.50;99.90;;;22.93;80.25;101129.50;5061433;28;20127;-70
2023/08/15 01:12:44;;;;;;;2.38;2.28;;;22.50;99.90;;;22.96;80.26;101131.16;5061170;28;20068;-70
2023/08/15 01:15:17;;;;;;;2.30;2.20;;;22.50;99.90;;;22.81;80.80;101107.66;5058115;28;20095;-70
2023/08/15 01:17:56;;;;;;;2.20;2.10;;;22.50;99.90;;;22.91;80.99;101125.13;5075920;28;20049;-70
2023/08/15 01:20:29;;;;;;;2.28;2.17;;;22.50;99.90;;;22.91;81.26;101107.13;5061001;28;20045;-70
2023/08/15 01:23:03;;;;;;;2.30;2.20;;;22.50;99.90;;;22.99;81.25;101107.63;5063438;28;20048;-70
2023/08/15 01:25:39;;;;;;;2.42;2.33;;;22.50;99.90;;;22.99;81.57;101104.91;5060239;28;20056;-70
2023/08/15 01:28:12;;;;;;;2.30;2.20;;;22.50;99.90;;;23.01;81.91;101102.13;5061861;28;20067;-70
2023/08/15 01:30:45;;;;;;;2.20;2.10;;;22.60;99.90;;;22.96;82.28;101109.56;5062464;28;20560;-70
2023/08/15 01:33:22;;;;;;;2.20;2.10;;;22.50;99.90;;;22.86;83.25;101117.28;5051749;28;20509;-70
2023/08/15 01:35:59;;;;;;;2.10;2.00;;;22.40;99.90;;;22.86;83.50;101125.34;5064022;28;20047;-70
2023/08/15 01:38:40;;;;;;;2.75;2.65;;;22.40;99.90;;;22.88;83.31;101122.59;5062409;28;20053;-69
2023/08/15 01:41:14;;;;;;;2.33;2.22;;;22.40;99.90;;;22.87;83.46;101131.63;5064362;28;20055;-70
2023/08/15 01:43:45;;;;;;;2.47;2.38;;;22.40;99.90;;;22.79;83.30;101129.34;5071556;28;20056;-70
2023/08/15 01:46:13;;;;;;;2.47;2.38;;;22.30;99.90;;;22.74;83.12;101127.81;5066435;28;20116;-70
2023/08/15 01:48:43;;;;;;;2.28;2.17;;;22.30;99.90;;;22.69;83.27;101129.84;5063008;28;20048;-70
2023/08/15 01:51:12;;;;;;;2.20;2.10;;;22.30;99.90;;;22.69;83.39;101135.25;5070185;28;20057;-69
2023/08/15 01:53:40;;;;;;;2.38;2.28;;;22.30;99.90;;;22.69;83.46;101137.94;5053502;28;20091;-70
2023/08/15 01:56:10;;;;;;;2.30;2.20;;;22.20;99.90;;;22.67;83.51;101135.34;5053460;28;20045;-70
2023/08/15 01:58:39;;;;;;;2.17;2.08;;;22.20;99.90;;;22.67;83.92;101129.94;5064218;28;20045;-70
2023/08/15 02:01:07;;;;;;;2.20;2.10;;;22.20;99.90;;;22.57;84.39;101133.19;5071417;28;20056;-69
2023/08/15 02:03:36;;;;;;;2.47;2.38;;;22.10;99.90;;;22.39;85.10;101125.03;5064802;28;20041;-70
2023/08/15 02:06:04;;;;;;;2.35;2.25;;;22.00;99.90;;;22.15;85.95;101144.19;5064222;28;20118;-70
2023/08/15 02:08:33;;;;;;;2.63;2.53;;;21.70;99.90;;;22.10;86.73;101154.31;5066085;28;20043;-70
2023/08/15 02:11:03;;;;;;;2.17;2.07;;;21.60;99.90;;;22.05;86.52;101142.88;5070065;28;20409;-69
2023/08/15 02:13:33;;;;;;;2.42;2.33;;;21.60;99.90;;;22.19;86.46;101145.78;5078113;28;20064;-69
2023/08/15 02:16:02;;;;;;;;;;;21.60;99.90;;;22.22;86.04;101142.97;5066423;28;20370;-69
2023/08/15 02:18:30;;;;;;;3.20;3.10;;;21.70;99.90;;;22.26;85.91;101139.19;5062540;28;19928;-70
2023/08/15 02:20:59;;;;;;;2.30;2.20;;;21.80;99.90;;;22.35;85.74;101147.69;5063772;28;20052;-70
2023/08/15 02:23:27;;;;;;;2.50;2.40;;;21.90;99.90;;;22.33;86.31;101152.28;5059815;28;20163;-69
2023/08/15 02:25:56;;;;;;;2.13;2.03;;;21.90;99.90;;;22.38;86.29;101155.63;5064420;28;20045;-71
2023/08/15 02:28:24;;;;;;;2.30;2.20;;;21.90;99.90;;;21.79;86.04;101055.19;5063643;28;20044;-70
2023/08/15 02:30:54;;;;;;;2.15;2.05;;;21.90;99.90;;;22.44;85.83;101149.03;5060711;28;20048;-70
2023/08/15 02:33:23;;;;;;;;;;;22.00;99.90;;;22.43;85.73;101142.78;5066497;28;20406;-69
2023/08/15 02:35:53;;;;;;;2.30;2.20;;;22.00;99.90;;;22.41;85.60;101144.66;5065358;28;19921;-69
2023/08/15 02:38:24;;;;;;;2.22;2.13;;;22.00;99.90;;;22.07;85.30;101087.97;5080665;28;20049;-70
2023/08/15 02:40:52;;;;;;;2.22;2.13;;;22.00;99.90;;;22.42;85.48;101150.94;5058653;28;20053;-69
2023/08/15 02:43:21;;;;;;;2.30;2.20;;;22.00;99.90;;;22.47;85.26;101161.50;5063127;28;20456;-70
2023/08/15 02:45:49;;;;;;;2.40;2.30;;;22.00;99.90;;;22.48;85.17;101161.44;5063630;28;20049;-69
2023/08/15 02:48:19;;;;;;;2.10;2.00;;;22.00;99.90;;;22.49;85.06;101165.00;5064394;28;20041;-69
2023/08/15 02:50:47;;;;;;;2.37;2.27;;;22.00;99.90;;;22.43;84.97;101171.59;5069318;28;20056;-69
2023/08/15 02:53:16;;;;;;;2.55;2.45;;;22.00;99.90;;;22.41;84.84;101174.31;5060008;28;20345;-69
2023/08/15 02:55:44;;;;;;;2.15;2.05;;;22.00;99.90;;;22.36;84.94;101176.38;5077454;28;20083;-69
2023/08/15 02:58:12;;;;;;;2.83;2.72;;;21.90;99.90;;;22.30;85.11;101182.06;5052440;28;20095;-69
2023/08/15 03:00:41;;;;;;;2.17;2.08;;;21.90;99.90;;;22.25;85.07;101176.03;5063513;28;20055;-69
2023/08/15 03:03:09;;;;;;;2.35;2.25;;;21.90;99.90;;;22.16;85.46;101173.75;5053362;28;20494;-69
2023/08/15 03:05:39;;;;;;;2.33;2.22;;;21.80;99.90;;;22.12;85.22;101191.03;5053637;28;20048;-71
2023/08/15 03:08:08;;;;;;;2.58;2.47;;;21.70;99.90;;;21.52;85.70;101088.78;5061686;28;20059;-70
2023/08/15 03:10:39;;;;;;;2.33;2.22;;;21.70;99.90;;;22.15;85.87;101182.81;5059045;28;20061;-70
2023/08/15 03:13:08;;;;;;;2.33;2.22;;;21.70;99.90;;;22.16;86.07;101189.06;5064345;28;20128;-70
2023/08/15 03:15:37;;;;;;;2.30;2.20;;;21.70;99.90;;;22.19;85.94;101183.53;5067919;28;20506;-69
2023/08/15 03:18:06;;;;;;;;;;;21.70;99.90;;;22.23;86.13;101183.31;5077118;28;20055;-69
2023/08/15 03:20:35;;;;;;;2.40;2.30;;;21.80;99.90;;;22.19;86.16;101181.72;5063307;28;20407;-69
2023/08/15 03:23:06;;;;;;;2.67;2.58;;;21.80;99.90;;;22.16;86.57;101183.69;5057249;28;20072;-70
2023/08/15 03:25:35;;;;;;;2.20;2.10;;;21.70;99.90;;;22.14;87.04;101183.72;5059583;28;20513;-69
2023/08/15 03:28:04;;;;;;;2.78;2.67;;;21.70;99.90;;;22.17;86.83;101186.28;5069406;28;20070;-70
2023/08/15 03:30:32;;;;;;;2.53;2.42;;;21.70;99.90;;;22.17;86.90;101175.50;5058813;28;20056;-70
2023/08/15 03:33:00;;;;;;;2.42;2.33;;;21.70;99.90;;;22.21;86.75;101185.22;5079252;28;20494;-70
2023/08/15 03:35:29;;;;;;;2.22;2.13;;;21.70;99.90;;;22.20;86.70;101188.84;5068494;28;20045;-70
2023/08/15 03:37:57;;;;;;;2.40;2.30;;;21.80;99.90;;;22.17;86.51;101199.78;5064288;28;20449;-69
2023/08/15 03:40:27;;;;;;;2.38;2.28;;;21.80;99.90;;;22.17;86.78;101199.78;5060859;28;20045;-70
2023/08/15 03:42:56;;;;;;;2.90;2.80;;;21.70;99.90;;;22.14;86.42;101193.66;5052891;28;20059;-69
2023/08/15 03:45:24;;;;;;;2.35;2.25;;;21.70;99.90;;;22.12;86.42;101198.25;5059508;28;20114;-70
2023/08/15 03:47:53;;;;;;;2.60;2.50;;;21.70;99.90;;;22.13;86.35;101200.84;5063441;28;20056;-70
2023/08/15 03:50:22;;;;;;;2.35;2.25;;;21.70;99.90;;;22.06;86.53;101203.91;5069818;28;20052;-69
2023/08/15 03:52:51;;;;;;;2.40;2.30;;;21.60;99.90;;;22.10;86.73;101219.88;5058308;28;20052;-70
2023/08/15 03:55:20;;;;;;;2.60;2.50;;;21.70;99.90;;;22.11;86.65;101215.34;5078365;28;20148;-69
2023/08/15 03:57:50;;;;;;;2.50;2.40;;;21.70;99.90;;;22.08;86.81;101215.50;5068252;28;20140;-69
2023/08/15 04:00:19;;;;;;;2.55;2.45;;;21.60;99.90;;;22.09;87.10;101225.31;5064372;28;20128;-70
2023/08/15 04:02:48;;;;;;;2.20;2.10;;;21.60;99.90;;;22.10;86.90;101222.56;5059128;28;20044;-69
2023/08/15 04:05:17;;;;;;;2.63;2.53;;;21.70;99.90;;;22.11;87.24;101216.22;5063883;28;20056;-70
2023/08/15 04:07:46;;;;;;;2.40;2.30;;;21.70;99.90;;;22.09;87.41;101220.81;5056917;28;20051;-70
2023/08/15 04:10:15;;;;;;;2.83;2.72;;;21.70;99.90;;;22.09;87.71;101211.84;5077269;28;20279;-69
2023/08/15 04:12:45;;;;;;;2.25;2.15;;;21.70;99.90;;;22.15;87.81;101225.91;5068783;28;20109;-70
2023/08/15 04:15:15;;;;;;;2.28;2.17;;;21.70;99.90;;;22.12;87.86;101215.28;5062694;28;20052;-70
2023/08/15 04:17:43;;;;;;;2.53;2.43;;;21.70;99.90;;;22.12;88.22;101220.69;5061204;28;20052;-70
2023/08/15 04:20:13;;;;;;;2.42;2.33;;;21.70;99.90;;;22.15;88.33;101214.25;5075598;28;20405;-70
2023/08/15 04:22:41;;;;;;;2.72;2.63;;;21.70;99.90;;;22.12;88.55;101215.28;5055634;28;20048;-69
2023/08/15 04:25:10;;;;;;;2.45;2.35;;;21.70;99.90;;;22.11;88.59;101208.13;5051856;28;20053;-69
2023/08/15 04:27:38;;;;;;;2.33;2.22;;;21.70;99.90;;;22.10;88.88;101201.00;5067204;28;20494;-70
2023/08/15 04:30:08;;;;;;;2.50;2.40;;;21.70;99.90;;;22.12;88.95;101201.81;5061263;28;20049;-69
2023/08/15 04:32:38;;;;;;;2.75;2.65;;;21.70;99.90;;;22.14;88.90;101205.28;5050858;28;20049;-70
2023/08/15 04:35:08;;;;;;;2.38;2.28;;;21.70;99.90;;;22.14;88.74;101199.03;5064203;28;20044;-69
2023/08/15 04:37:37;;;;;;;2.42;2.33;;;21.70;99.90;;;22.14;88.63;101199.91;5068014;28;20447;-70
2023/08/15 04:40:11;;;;;;;2.10;2.00;;;21.70;99.90;;;22.11;88.67;101197.34;5058771;28;20486;-69
2023/08/15 04:42:41;;;;;;;2.42;2.33;;;21.70;99.90;;;22.10;88.73;101205.53;5076286;28;20049;-70
2023/08/15 04:45:10;;;;;;;2.40;2.30;;;21.70;99.90;;;22.11;88.66;101209.94;5069772;28;20406;-70
2023/08/15 04:47:40;;;;;;;2.13;2.03;;;21.70;99.90;;;22.09;88.65;101204.63;5061963;28;20397;-70
2023/08/15 04:50:10;;;;;;;2.30;2.20;;;21.70;99.90;;;22.09;88.59;101212.72;5061887;28;20044;-70
2023/08/15 04:52:38;;;;;;;2.40;2.30;;;21.70;99.90;;;22.04;88.77;101206.69;5058041;28;20291;-69
2023/08/15 04:55:10;;;;;;;2.30;2.20;;;21.60;99.90;;;22.06;88.89;101204.78;5078457;28;20551;-69
2023/08/15 04:57:40;;;;;;;2.10;2.00;;;21.70;99.90;;;22.09;89.11;101204.63;5063604;28;20151;-69
2023/08/15 05:00:11;;;;;;;2.30;2.20;;;21.70;99.90;;;22.10;89.26;101208.22;5070110;28;20044;-70
2023/08/15 05:02:41;;;;;;;2.50;2.40;;;21.70;99.90;;;22.15;89.42;101215.13;5056545;28;20493;-69
2023/08/15 05:05:10;;;;;;;2.50;2.40;;;21.70;99.90;;;22.16;89.17;101216.88;5077512;28;20516;-71
2023/08/15 05:07:40;;;;;;;2.35;2.25;;;21.80;99.90;;;21.96;89.36;101176.53;5063878;28;20055;-69
2023/08/15 05:10:09;;;;;;;2.63;2.53;;;21.80;99.90;;;22.18;89.24;101225.75;5062282;28;20435;-69
2023/08/15 05:12:41;;;;;;;2.53;2.42;;;21.80;99.90;;;22.23;89.19;101226.44;5074312;28;20049;-70
2023/08/15 05:15:10;;;;;;;2.50;2.40;;;21.80;99.90;;;22.25;88.72;101235.34;5054136;28;20076;-70
2023/08/15 05:17:38;;;;;;;2.53;2.42;;;21.80;99.90;;;21.67;88.63;101132.97;5061829;28;20414;-76
2023/08/15 05:20:12;;;;;;;2.10;2.00;;;21.90;99.90;;;21.23;88.39;101081.16;5065179;28;20536;-71
2023/08/15 05:22:40;;;;;;;2.30;2.20;;;21.80;99.90;;;22.18;88.62;101247.31;5055453;28;20076;-69
2023/08/15 05:25:10;;;;;;;2.47;2.38;;;21.80;99.90;;;22.23;88.35;101239.91;5065869;28;20037;-71
2023/08/15 05:27:44;;;;;;;2.40;2.30;;;21.80;99.90;;;22.25;88.18;101246.13;5078944;28;20052;-69
2023/08/15 05:30:13;;;;;;;2.20;2.10;;;21.80;99.90;;;22.24;87.90;101247.03;5055097;28;20452;-68
2023/08/15 05:32:41;;;;;;;2.20;2.10;;;21.80;99.90;;;22.27;87.82;101246.03;5055076;28;20077;-68
2023/08/15 05:35:12;;;;;;;2.60;2.50;;;21.80;99.90;;;22.27;87.71;101248.72;5064928;28;20052;-70
2023/08/15 05:37:42;;;;;;;2.28;2.17;;;21.90;99.90;;;22.26;87.62;101255.09;5061789;28;20049;-71
2023/08/15 05:40:11;;;;;;;2.50;2.40;;;21.80;99.90;;;22.22;87.54;101257.00;5059868;28;20471;-69
2023/08/15 05:42:39;;;;;;;2.35;2.25;;;21.80;99.90;;;22.24;87.50;101259.66;5070933;28;20091;-71
2023/08/15 05:45:09;;;;;;;2.55;2.45;;;21.80;99.90;;;22.28;87.67;101261.25;5065789;28;20086;-71
2023/08/15 05:47:38;;;;;;;2.78;2.67;;;21.90;99.90;;;22.34;87.94;101259.16;5063211;28;20124;-70
2023/08/15 05:50:07;;;;;;;2.58;2.47;;;21.90;99.90;;;22.39;87.47;101262.53;5058295;28;20480;-72
2023/08/15 05:52:37;;;;;;;2.47;2.38;;;22.00;99.90;;;22.42;87.49;101261.50;5063720;28;20056;-72
2023/08/15 05:55:07;;;;;;;2.47;2.38;;;22.00;99.90;;;22.49;87.41;101262.09;5072207;28;20057;-71
2023/08/15 05:57:36;;;;;;;2.75;2.65;;;22.10;99.90;;;22.50;87.27;101253.03;5064802;28;20049;-71
2023/08/15 06:00:06;;;;;;;2.45;2.35;;;22.10;99.90;;;22.66;87.41;101268.47;5065123;28;20048;-72
2023/08/15 06:02:40;;;;;;;2.50;2.40;;;22.20;99.90;;;22.79;87.08;101277.72;5065973;28;20080;-72
2023/08/15 06:05:09;;;;;;;2.38;2.28;;;22.40;99.90;;;22.77;86.96;101255.31;5062375;28;20048;-72
2023/08/15 06:07:40;;;;;;;2.65;2.55;;;22.40;99.90;;;22.93;86.80;101277.03;5054214;28;20102;-72
2023/08/15 06:10:09;;;;;;;2.83;2.72;;;22.50;99.90;;;23.04;86.13;101282.78;5054368;28;20040;-72
2023/08/15 06:12:38;;;;;;;2.92;2.83;;;22.70;99.90;;;23.21;86.17;101291.78;5054232;28;20040;-71
2023/08/15 06:15:07;;;;;;;2.35;2.25;;;22.80;99.90;;;23.29;85.05;101291.41;5059924;28;20116;-71
2023/08/15 06:17:36;;;;;;;2.50;2.40;;;22.90;99.90;;;23.41;84.81;101298.94;5063513;28;20048;-71
2023/08/15 06:20:05;;;;;;;2.72;2.63;;;23.00;99.90;;;23.59;83.69;101311.53;5059809;28;20458;-71
2023/08/15 06:22:34;;;;;;;2.25;2.15;;;23.20;99.90;;;23.61;82.38;101317.72;5065926;28;20078;-72
2023/08/15 06:25:04;;;;;;;2.33;2.22;;;23.20;99.90;;;23.75;82.16;101319.72;5062255;28;20068;-72
2023/08/15 06:27:32;;;;;;;2.22;2.13;;;23.30;99.90;;;23.86;81.39;101325.44;5062521;28;20052;-74
2023/08/15 06:30:01;;;;;;;2.67;2.58;;;23.40;99.90;;;23.96;80.55;101329.41;5064967;28;20040;-71
2023/08/15 06:32:31;;;;;;;2.28;2.17;;;23.50;99.90;;;23.85;80.20;101294.81;5062875;28;20045;-68
2023/08/15 06:35:02;;;;;;;2.22;2.13;;;23.60;99.90;;;24.18;79.32;101344.44;5063967;28;20553;-72
2023/08/15 06:37:31;;;;;;;2.42;2.33;;;23.80;99.90;;;24.29;78.35;101340.31;5064173;28;20045;-72
2023/08/15 06:39:59;;;;;;;2.40;2.30;;;23.90;99.90;;;24.43;78.12;101345.84;5069417;28;20475;-74
2023/08/15 06:42:29;;;;;;;2.05;1.95;;;24.00;99.90;;;24.57;77.49;101341.44;5060349;28;20073;-70
2023/08/15 06:45:08;;;;;;;2.40;2.30;;;24.10;99.90;;;24.52;76.62;101345.34;5065231;28;20076;-73
2023/08/15 06:47:37;;;;;;;2.20;2.10;;;24.10;99.90;;;24.67;76.37;101347.19;5063205;28;20048;-73
2023/08/15 06:50:08;;;;;;;1.98;1.88;;;24.20;99.90;;;24.71;75.78;101343.38;5063152;28;20044;-72
2023/08/15 06:52:36;;;;;;;2.25;2.15;;;24.30;99.90;;;24.73;75.42;101346.91;5064580;28;20433;-73
2023/08/15 06:55:06;;;;;;;2.20;2.10;;;24.40;99.90;;;24.66;75.41;101342.75;5062064;28;20049;-72
2023/08/15 06:57:37;;;;;;;2.10;2.00;;;24.40;99.90;;;24.69;74.82;101346.16;5065139;28;20055;-72
2023/08/15 07:00:11;;;;;;;2.15;2.05;;;24.30;99.90;;;24.71;75.03;101346.06;5052197;28;20041;-71
2023/08/15 07:02:42;;;;;;;2.30;2.20;;;24.40;99.90;;;24.30;74.92;101293.34;5053493;28;20379;-75
2023/08/15 07:05:10;;;;;;;2.00;1.90;;;24.30;99.90;;;24.65;75.35;101351.81;5053283;28;20122;-73
2023/08/15 07:07:39;;;;;;;2.15;2.05;;;24.30;99.90;;;24.59;75.08;101350.34;5055823;28;20923;-75
2023/08/15 07:10:10;;;;;;;2.25;2.15;;;24.20;99.90;;;24.63;75.36;101343.78;5062033;28;20186;-70
2023/08/15 07:12:40;;;;;;;1.98;1.88;;;24.30;99.90;;;24.76;75.77;101339.47;5064893;28;20067;-71
2023/08/15 07:15:09;;;;;;;2.63;2.53;;;24.40;99.90;;;24.89;75.93;101355.94;5052776;28;20122;-72
2023/08/15 07:17:39;;;;;;;2.20;2.10;;;24.50;99.90;;;24.96;75.56;101362.75;5052743;28;20053;-68
2023/08/15 07:20:10;;;;;;;2.45;2.35;;;24.60;99.90;;;24.89;75.35;101362.19;5052685;28;20041;-69
2023/08/15 07:22:38;;;;;;;1.90;1.80;;;24.60;99.90;;;24.75;75.21;101363.94;5054867;28;20037;-68
2023/08/15 07:25:08;;;;;;;2.47;2.28;;;24.40;99.90;;;24.58;75.15;101372.06;5061998;28;20428;-68
2023/08/15 07:27:36;;;;;;;9.93;8.25;;;24.20;99.90;;;24.52;76.07;101364.28;5059339;28;20074;-69
2023/08/15 07:30:11;;;;;;;2.40;2.30;;;24.20;99.90;;;24.43;76.23;101367.50;5063309;28;20044;-68
2023/08/15 07:32:39;;;;;;;1.95;1.85;;;24.00;99.90;;;24.40;76.47;101376.63;5052438;28;20037;-70
2023/08/15 07:35:09;;;;;;;2.40;2.30;;;24.00;99.90;;;24.38;77.24;101372.25;5052673;28;20409;-68
2023/08/15 07:37:38;;;;;;;2.30;2.20;;;24.00;99.90;;;24.39;77.54;101372.16;5052374;28;20049;-69
2023/08/15 07:40:10;;;;;;;2.10;2.00;;;24.00;99.90;;;24.34;77.61;101376.97;5058389;28;20283;-74
2023/08/15 07:42:39;;;;;;;2.65;2.55;;;24.00;99.90;;;24.14;77.80;101359.06;5061185;28;20081;-71
2023/08/15 07:45:10;;;;;;;2.35;2.25;;;23.90;99.90;;;24.07;78.18;101373.88;5063625;28;20040;-69
2023/08/15 07:47:39;;;;;;;2.25;2.15;;;23.90;99.90;;;24.02;78.85;101384.03;5052175;28;20037;-69
2023/08/15 07:50:18;;;;;;;2.95;2.75;;;23.70;99.90;;;23.92;78.86;101374.66;5052400;28;20041;-70
2023/08/15 07:52:47;;;;;;;2.08;1.98;;;23.60;99.90;;;23.73;79.83;101381.06;5052118;28;20136;-69
2023/08/15 07:55:15;;;;;;;2.35;2.25;;;23.50;99.90;;;23.65;80.63;101385.97;5052010;28;20071;-68
2023/08/15 07:57:44;;;;;;;3.17;3.08;;;23.40;99.90;;;23.68;81.30;101389.38;5062257;28;20056;-69
2023/08/15 08:00:15;;;;;;;8.43;3.20;;;23.30;99.90;;;23.69;81.65;101390.28;5067688;28;20053;-69
2023/08/15 08:02:44;;;;;;;;;;;23.30;99.90;;;23.58;82.29;101393.50;5061121;28;20052;-69
2023/08/15 08:05:15;;;;;;;2.75;2.65;;;23.30;99.90;;;23.45;83.02;101389.66;5063398;28;19921;-69
2023/08/15 08:07:45;;;;;;;2.63;2.50;;;23.10;99.90;;;23.31;84.04;101402.94;5073987;28;20045;-69
2023/08/15 08:10:14;;;;;;;4.10;3.80;;;23.00;99.90;;;23.39;84.86;101411.56;5062114;28;20110;-70
2023/08/15 08:12:42;;;;;;;2.42;2.33;;;23.00;99.90;;;23.44;84.97;101406.81;5061736;28;20079;-69
2023/08/15 08:15:11;;;;;;;2.38;2.28;;;23.00;99.90;;;23.42;84.65;101400.63;5062785;28;20090;-69
2023/08/15 08:17:41;;;;;;;2.83;2.72;;;23.00;99.90;;;23.43;84.75;101401.47;5060485;28;20053;-69
2023/08/15 08:20:13;;;;;;;2.60;2.50;;;23.10;99.90;;;23.36;85.65;101414.44;5060183;28;20052;-70
2023/08/15 08:22:41;;;;;;;2.45;2.35;;;23.00;99.90;;;23.30;85.24;101406.59;5060748;28;20718;-69
2023/08/15 08:25:16;;;;;;;2.97;2.88;;;23.00;99.90;;;23.20;86.27;101414.25;5062581;28;20063;-69
2023/08/15 08:27:45;;;;;;;2.65;2.55;;;22.90;99.90;;;23.36;86.30;101422.53;5062490;28;20056;-69
2023/08/15 08:30:15;;;;;;;2.38;2.28;;;23.00;99.90;;;23.47;86.88;101409.38;5061378;28;20072;-69
2023/08/15 08:32:45;;;;;;;2.67;2.57;;;23.10;99.90;;;22.78;85.66;101296.69;5063120;28;20375;-69
2023/08/15 08:35:15;;;;;;;2.58;2.47;;;23.20;99.90;;;23.34;84.32;101421.72;5063946;28;20440;-68
2023/08/15 08:37:45;;;;;;;2.22;2.13;;;23.00;99.90;;;23.21;83.29;101429.47;5060354;28;20045;-70
2023/08/15 08:40:14;;;;;;;2.53;2.42;;;22.90;99.90;;;23.20;83.83;101432.25;5062170;28;20398;-69
2023/08/15 08:42:43;;;;;;;2.38;2.28;;;22.90;99.90;;;23.14;83.67;101432.56;5059258;28;20228;-69
2023/08/15 08:45:13;;;;;;;2.20;2.10;;;22.90;99.90;;;23.16;83.29;101430.66;5065776;28;20065;-69
2023/08/15 08:47:43;;;;;;;2.60;2.50;;;22.90;99.90;;;23.09;82.61;101435.47;5064764;28;20630;-69
2023/08/15 08:50:12;;;;;;;2.38;2.28;;;22.90;99.90;;;23.12;82.98;101429.06;5066909;28;20052;-69
2023/08/15 08:52:48;;;;;;;2.30;2.20;;;22.90;99.90;;;23.26;83.10;101435.56;5063857;28;20094;-69
2023/08/15 08:55:18;;;;;;;2.50;2.40;;;23.00;99.90;;;23.22;82.47;101435.78;5064683;28;20069;-69
2023/08/15 08:57:51;;;;;;;2.78;2.67;;;23.00;99.90;;;23.07;82.71;101431.09;5066094;28;20132;-69
2023/08/15 09:00:26;;;;;;;2.58;2.47;;;22.90;99.90;;;23.12;83.38;101451.53;5066890;28;20055;-70
2023/08/15 09:02:57;;;;;;;2.28;2.17;;;22.80;99.90;;;23.16;84.31;101450.44;5055352;28;20508;-69
2023/08/15 09:05:27;;;;;;;2.28;2.17;;;22.80;99.90;;;23.14;84.16;101451.44;5055672;28;20051;-69
2023/08/15 09:07:55;;;;;;;2.33;2.22;;;22.80;99.90;;;23.20;84.24;101456.56;5055233;28;20121;-69
2023/08/15 09:10:24;;;;;;;2.55;2.45;;;22.80;99.90;;;23.28;84.39;101451.69;5055558;28;20065;-70
2023/08/15 09:12:59;;;;;;;2.67;2.58;;;22.90;99.90;;;23.38;85.07;101439.53;5065366;28;20084;-69
2023/08/15 09:15:28;;;;;;;2.50;2.40;;;23.00;99.90;;;23.60;85.67;101450.16;5064002;28;20056;-69
2023/08/15 09:18:06;;;;;;;2.40;2.30;;;23.20;99.90;;;23.68;84.24;101450.66;5063722;28;20386;-69
2023/08/15 09:20:45;;;;;;;2.40;2.30;;;23.30;99.90;;;23.70;83.94;101463.16;5066056;28;20056;-69
2023/08/15 09:23:14;;;;;;;2.60;2.50;;;23.40;99.90;;;23.77;83.69;101459.19;5066934;28;20045;-69
2023/08/15 09:25:42;;;;;;;2.35;2.25;;;23.40;99.90;;;23.73;83.24;101451.31;5063144;28;20091;-69
2023/08/15 09:28:11;;;;;;;2.20;2.10;;;23.50;99.90;;;23.77;83.12;101456.47;5063576;28;20053;-70
2023/08/15 09:30:51;;;;;;;2.38;2.28;;;23.40;99.90;;;23.86;84.26;101456.03;5066353;28;20051;-69
2023/08/15 09:33:21;;;;;;;2.38;2.28;;;23.50;99.90;;;23.98;84.87;101452.69;5061705;28;20049;-69
2023/08/15 09:35:49;;;;;;;2.50;2.40;;;23.60;99.90;;;23.84;85.48;101455.25;5067114;28;20040;-69
2023/08/15 09:38:26;;;;;;;2.30;2.20;;;23.50;99.90;;;23.83;85.01;101453.47;5063730;28;20079;-70
2023/08/15 09:40:56;;;;;;;2.03;1.92;;;23.50;99.90;;;23.94;85.80;101456.50;5065576;28;20044;-69
2023/08/15 09:43:25;;;;;;;2.20;2.10;;;23.60;99.90;;;24.13;85.71;101457.38;5060062;28;20487;-69
2023/08/15 09:45:54;;;;;;;2.42;2.33;;;23.70;99.90;;;24.28;83.40;101471.06;5080432;28;20046;-69
2023/08/15 09:48:24;;;;;;;2.40;2.30;;;23.90;99.90;;;24.28;80.89;101474.63;5070895;28;20057;-70
2023/08/15 09:50:56;;;;;;;2.38;2.28;;;24.00;99.90;;;24.23;79.39;101482.13;5061370;28;20045;-69
2023/08/15 09:53:25;;;;;;;2.22;2.13;;;24.00;99.90;;;24.23;78.30;101494.75;5061406;28;20136;-68
2023/08/15 09:55:54;;;;;;;2.95;2.75;;;23.90;99.90;;;24.24;78.43;101496.50;5065748;28;20481;-69
2023/08/15 09:58:23;;;;;;;2.08;1.98;;;23.90;99.90;;;24.24;78.20;101493.78;5063330;28;20041;-70
2023/08/15 10:00:52;;;;;;;2.20;2.10;;;24.00;99.90;;;24.25;78.38;101487.44;5065140;28;20119;-69
2023/08/15 10:03:30;;;;;;;2.08;1.98;;;24.00;99.90;;;24.15;78.62;101477.13;5064667;28;20048;-70
2023/08/15 10:05:59;;;;;;;2.53;2.42;;;24.00;99.90;;;24.20;78.15;101493.09;5062623;28;20520;-70
2023/08/15 10:08:27;;;;;;;31.02;3.25;;;23.90;99.90;;;24.27;77.98;101507.19;5054126;28;20041;-69
2023/08/15 10:10:59;;;;;;;2.45;2.35;;;23.90;99.90;;;24.25;77.95;101509.97;5063046;28;20045;-69
2023/08/15 10:13:32;;;;;;;2.05;1.95;;;23.90;99.90;;;24.27;77.71;101510.78;5065010;28;20044;-69
2023/08/15 10:16:03;;;;;;;2.75;2.63;;;24.00;99.90;;;24.25;77.62;101518.09;5064350;28;20513;-70
2023/08/15 10:18:34;;;;;;;2.30;2.20;;;23.90;99.90;;;24.28;78.28;101522.44;5062774;28;20053;-72
2023/08/15 10:21:03;;;;;;;2.40;2.30;;;24.00;99.90;;;24.26;78.81;101521.63;5065808;28;20151;-69
2023/08/15 10:23:34;;;;;;;2.78;2.67;;;23.90;99.90;;;24.13;78.42;101516.88;5053757;28;20123;-69